Time;durP1;ratioP1;P1;durP2;ratioP2;P2;SDS_P1;SDS_P2;PMS_P1;PMS_P2;Temp;Humidity;BMP_temperature;BMP_pressure;BME280_temperature;BME280_humidity;BME280_pressure;Samples;Min_cycle;Max_cycle;Signal;HPM_P1;HPM_P2
2023/05/20 00:00:53;;;;;;;4.45;2.53;;;;;;;19.53;58.74;99964.75;4499158;31;34930;-62
2023/05/20 00:03:21;;;;;;;5.15;3.87;;;;;;;19.46;59.22;99961.00;4499091;31;34217;-63
2023/05/20 00:05:49;;;;;;;7.87;4.32;;;;;;;19.38;59.33;99963.69;4490723;31;33156;-62
2023/05/20 00:08:17;;;;;;;15.00;3.65;;;;;;;19.51;58.80;99964.06;4495788;31;33667;-63
2023/05/20 00:10:45;;;;;;;4.50;2.70;;;;;;;19.45;58.86;99970.16;4498952;31;33726;-63
2023/05/20 00:13:13;;;;;;;5.50;3.40;;;;;;;19.44;58.66;99973.88;4499135;31;32740;-62
2023/05/20 00:15:40;;;;;;;7.12;3.03;;;;;;;19.19;59.28;99967.53;4499478;31;33221;-62
2023/05/20 00:18:08;;;;;;;4.45;3.05;;;;;;;19.28;58.58;99972.81;4493250;31;32326;-62
2023/05/20 00:20:36;;;;;;;4.18;3.20;;;;;;;19.17;59.26;99967.72;4487817;31;33672;-62
2023/05/20 00:23:03;;;;;;;7.30;3.50;;;;;;;19.26;58.92;99969.44;4492248;31;34446;-62
2023/05/20 00:25:31;;;;;;;8.40;4.75;;;;;;;19.26;58.91;99966.72;4492576;31;33474;-62
2023/05/20 00:27:59;;;;;;;7.12;4.22;;;;;;;19.30;58.69;99965.38;4494876;31;32644;-61
2023/05/20 00:30:27;;;;;;;7.37;3.60;;;;;;;19.31;58.91;99964.34;4494027;31;34917;-62
2023/05/20 00:32:55;;;;;;;6.90;4.12;;;;;;;19.41;58.71;99963.34;4492557;31;32950;-63
2023/05/20 00:35:23;;;;;;;7.93;4.68;;;;;;;19.44;58.92;99957.59;4499554;31;33694;-63
2023/05/20 00:37:50;;;;;;;5.00;2.62;;;;;;;19.38;58.92;99952.84;4499763;31;34017;-62
2023/05/20 00:40:19;;;;;;;6.22;3.47;;;;;;;19.30;58.98;99961.81;4499751;31;33783;-62
2023/05/20 00:42:47;;;;;;;8.30;4.40;;;;;;;19.18;58.93;99965.84;4491039;31;34729;-62
2023/05/20 00:45:15;;;;;;;4.62;3.17;;;;;;;19.19;58.93;99965.66;4497930;31;34300;-62
2023/05/20 00:47:43;;;;;;;4.90;3.45;;;;;;;19.23;58.65;99960.75;4499075;31;34128;-62
2023/05/20 00:50:10;;;;;;;5.78;3.40;;;;;;;18.98;59.31;99968.84;4495461;31;34371;-62
2023/05/20 00:52:40;;;;;;;5.15;3.00;;;;;;;19.06;58.93;99974.28;4497423;31;33641;-62
2023/05/20 00:55:08;;;;;;;4.78;3.15;;;;;;;19.05;59.00;99959.03;4499127;31;34200;-62
2023/05/20 00:57:35;;;;;;;8.35;4.00;;;;;;;19.06;59.17;99970.72;4498892;31;33916;-62
2023/05/20 01:00:04;;;;;;;4.70;3.03;;;;;;;19.04;59.11;99967.34;4499026;31;33802;-63
2023/05/20 01:02:32;;;;;;;5.53;3.83;;;;;;;19.03;59.17;99974.59;4495718;31;32458;-63
2023/05/20 01:05:00;;;;;;;11.32;4.00;;;;;;;18.91;60.22;99965.09;4485805;31;32986;-63
2023/05/20 01:07:27;;;;;;;6.32;2.50;;;;;;;18.92;60.32;99964.06;4485111;31;33660;-63
2023/05/20 01:09:55;;;;;;;6.45;2.70;;;;;;;18.95;59.84;99960.19;4495597;31;33504;-62
2023/05/20 01:12:31;;;;;;;4.62;3.20;;;;;;;18.98;59.20;99973.41;4499282;31;34113;-63
2023/05/20 01:15:10;;;;;;;4.20;2.72;;;;;;;18.97;59.11;99974.41;4490858;31;31976;-63
2023/05/20 01:17:50;;;;;;;4.68;3.35;;;;;;;18.94;59.11;99972.00;4493350;31;33998;-63
2023/05/20 01:20:19;;;;;;;4.68;2.83;;;;;;;18.87;59.35;99976.41;4482617;31;33027;-63
2023/05/20 01:22:55;;;;;;;9.23;3.70;;;;;;;18.81;59.23;99977.87;4494500;31;33747;-62
2023/05/20 01:25:25;;;;;;;4.12;2.62;;;;;;;18.60;59.47;99975.56;4498162;31;33245;-62
2023/05/20 01:27:54;;;;;;;4.90;2.78;;;;;;;18.65;59.42;99978.66;4497101;31;34298;-62
2023/05/20 01:30:27;;;;;;;5.32;3.30;;;;;;;18.71;59.37;99983.41;4495586;31;33785;-61
2023/05/20 01:33:00;;;;;;;4.87;3.00;;;;;;;18.62;59.54;99985.25;4499238;31;32673;-62
2023/05/20 01:35:29;;;;;;;4.55;2.25;;;;;;;18.62;59.61;99982.53;4485990;31;33304;-61
2023/05/20 01:37:59;;;;;;;6.37;3.10;;;;;;;18.63;59.68;99980.66;4499812;31;33421;-63
2023/05/20 01:40:26;;;;;;;8.00;3.15;;;;;;;18.65;59.75;99985.91;4486916;31;33981;-61
2023/05/20 01:42:55;;;;;;;7.32;3.42;;;;;;;18.66;59.94;99985.75;4487844;31;35228;-62
2023/05/20 01:45:23;;;;;;;12.68;3.62;;;;;;;18.68;60.21;99977.44;4497682;31;34426;-62
2023/05/20 01:47:51;;;;;;;8.65;3.22;;;;;;;18.61;60.49;99980.81;4495883;31;34737;-62
2023/05/20 01:50:19;;;;;;;7.20;3.10;;;;;;;18.63;60.66;99980.66;4497554;31;35681;-63
2023/05/20 01:52:46;;;;;;;4.72;2.37;;;;;;;18.62;60.50;99979.81;4498503;31;34629;-62
2023/05/20 01:55:14;;;;;;;5.15;3.03;;;;;;;18.55;60.68;99978.75;4496115;31;34124;-64
2023/05/20 01:57:42;;;;;;;11.40;4.10;;;;;;;18.66;60.76;99974.06;4496923;31;33857;-63
2023/05/20 02:00:10;;;;;;;6.30;3.70;;;;;;;18.75;60.86;99973.16;4498665;31;33960;-63
2023/05/20 02:02:39;;;;;;;8.05;3.83;;;;;;;18.82;61.15;99976.91;4497507;31;33801;-63
2023/05/20 02:05:09;;;;;;;6.72;3.97;;;;;;;18.60;62.10;99972.84;4495768;31;34480;-63
2023/05/20 02:07:36;;;;;;;6.28;3.92;;;;;;;18.67;62.05;99979.31;4491892;31;33611;-61
2023/05/20 02:10:05;;;;;;;5.28;3.08;;;;;;;18.78;62.65;99975.50;4491694;31;32685;-62
2023/05/20 02:12:33;;;;;;;8.05;3.92;;;;;;;18.95;62.09;99976.44;4483490;31;33714;-62
2023/05/20 02:15:01;;;;;;;6.95;3.00;;;;;;;19.17;61.50;99969.59;4495688;31;32249;-62
2023/05/20 02:17:30;;;;;;;8.57;5.10;;;;;;;19.26;61.43;99980.31;4495722;31;34584;-62
2023/05/20 02:19:58;;;;;;;6.50;3.67;;;;;;;19.29;61.35;99974.53;4493411;31;33972;-62
2023/05/20 02:22:27;;;;;;;7.78;4.20;;;;;;;19.34;61.37;99968.59;4499245;31;32681;-62
2023/05/20 02:24:54;;;;;;;5.43;3.72;;;;;;;19.40;61.18;99975.25;4496553;31;31930;-62
2023/05/20 02:27:22;;;;;;;5.60;3.70;;;;;;;19.54;60.80;99969.16;4497165;31;33775;-63
2023/05/20 02:29:50;;;;;;;6.93;3.80;;;;;;;19.54;60.89;99975.41;4499320;31;33762;-63
2023/05/20 02:32:19;;;;;;;7.55;4.00;;;;;;;19.57;60.85;99970.69;4497206;31;33770;-62
2023/05/20 02:34:47;;;;;;;8.27;4.07;;;;;;;19.65;60.51;99970.75;4496943;31;34653;-62
2023/05/20 02:37:15;;;;;;;7.60;4.15;;;;;;;19.71;60.36;99970.03;4495449;31;32855;-62
2023/05/20 02:39:42;;;;;;;5.25;3.03;;;;;;;19.75;60.36;99971.44;4487871;31;33821;-62
2023/05/20 02:42:11;;;;;;;5.62;3.17;;;;;;;19.70;60.53;99965.66;4495753;31;34730;-62
2023/05/20 02:44:38;;;;;;;7.05;4.57;;;;;;;19.76;60.24;99963.09;4485738;31;31375;-62
2023/05/20 02:47:06;;;;;;;8.10;4.68;;;;;;;19.77;60.09;99963.94;4494679;31;33837;-62
2023/05/20 02:49:34;;;;;;;6.65;3.60;;;;;;;19.85;59.84;99963.97;4498330;31;36085;-62
2023/05/20 02:52:03;;;;;;;9.35;3.70;;;;;;;19.51;60.16;99964.06;4489463;31;34983;-62
2023/05/20 02:54:30;;;;;;;7.20;3.70;;;;;;;19.36;60.34;99963.87;4490595;31;33207;-62
2023/05/20 02:56:58;;;;;;;7.62;4.30;;;;;;;19.29;60.69;99965.53;4492249;31;33793;-62
2023/05/20 02:59:25;;;;;;;6.82;3.80;;;;;;;19.28;60.60;99959.25;4498493;31;33850;-62
2023/05/20 03:01:53;;;;;;;5.68;3.67;;;;;;;19.15;60.70;99964.31;4497895;31;35291;-62
2023/05/20 03:04:21;;;;;;;5.00;2.80;;;;;;;19.14;60.72;99961.78;4495834;31;34795;-62
2023/05/20 03:06:50;;;;;;;6.32;4.35;;;;;;;19.30;60.20;99959.94;4494803;31;33758;-61
2023/05/20 03:09:18;;;;;;;5.05;3.15;;;;;;;19.06;61.05;99976.13;4495730;31;34061;-62
2023/05/20 03:11:47;;;;;;;6.97;2.90;;;;;;;19.28;60.38;99978.25;4498332;31;33662;-62
2023/05/20 03:14:15;;;;;;;5.07;3.35;;;;;;;19.38;60.00;99972.69;4497396;31;34272;-62
2023/05/20 03:16:43;;;;;;;5.72;3.85;;;;;;;19.45;59.82;99976.41;4494861;31;33939;-62
2023/05/20 03:19:11;;;;;;;6.87;3.83;;;;;;;19.56;59.56;99978.00;4497965;31;34933;-62
2023/05/20 03:21:40;;;;;;;7.22;4.43;;;;;;;19.63;59.18;99979.00;4494773;31;33364;-63
2023/05/20 03:24:07;;;;;;;9.25;4.53;;;;;;;19.71;58.87;99979.06;4497995;31;34255;-62
2023/05/20 03:26:36;;;;;;;7.68;3.95;;;;;;;19.75;58.81;99980.41;4490662;31;33707;-62
2023/05/20 03:29:04;;;;;;;6.43;3.83;;;;;;;19.70;58.63;99980.06;4486144;31;32805;-63
2023/05/20 03:31:32;;;;;;;6.62;4.28;;;;;;;19.85;58.37;99982.12;4498053;31;33013;-63
2023/05/20 03:34:00;;;;;;;4.87;3.08;;;;;;;19.85;58.38;99982.12;4488658;31;33294;-62
2023/05/20 03:36:27;;;;;;;5.97;3.42;;;;;;;19.82;58.21;99994.19;4492060;31;33704;-62
2023/05/20 03:38:56;;;;;;;7.10;3.22;;;;;;;19.84;58.16;99983.13;4495472;31;35105;-62
2023/05/20 03:41:23;;;;;;;5.72;3.03;;;;;;;19.86;58.15;99986.53;4491327;31;33932;-62
2023/05/20 03:43:51;;;;;;;5.15;3.05;;;;;;;19.84;58.19;99991.28;4498304;31;33421;-62
2023/05/20 03:46:19;;;;;;;6.72;4.03;;;;;;;19.47;58.90;99998.84;4500001;31;33703;-62
2023/05/20 03:48:46;;;;;;;9.35;3.42;;;;;;;19.67;57.69;100001.28;4499899;31;35642;-62
2023/05/20 03:51:14;;;;;;;6.00;3.85;;;;;;;19.53;58.14;99990.03;4493267;31;33591;-62
2023/05/20 03:53:42;;;;;;;5.87;3.35;;;;;;;19.56;58.29;99997.00;4496219;31;33141;-63
2023/05/20 03:56:10;;;;;;;4.97;3.12;;;;;;;19.62;57.94;99996.31;4496706;31;33973;-63
2023/05/20 03:58:38;;;;;;;4.95;2.83;;;;;;;19.46;58.24;99993.59;4496642;31;34977;-63
2023/05/20 04:01:06;;;;;;;11.25;3.35;;;;;;;19.46;58.32;99999.00;4495416;31;34540;-69
2023/05/20 04:03:33;;;;;;;5.95;2.75;;;;;;;19.50;58.36;100003.09;4495906;31;33263;-62
2023/05/20 04:06:03;;;;;;;7.28;3.78;;;;;;;19.52;58.10;100007.34;4487375;31;33573;-62
2023/05/20 04:08:31;;;;;;;9.40;4.05;;;;;;;19.22;58.75;100007.91;4489549;31;33899;-62
2023/05/20 04:10:59;;;;;;;5.87;3.40;;;;;;;19.29;58.63;100008.94;4497050;31;33675;-63
2023/05/20 04:13:26;;;;;;;7.72;3.37;;;;;;;19.31;58.35;100009.66;4498424;31;33268;-62
2023/05/20 04:15:54;;;;;;;6.57;3.53;;;;;;;19.20;58.44;100013.50;4495059;31;34384;-62
2023/05/20 04:18:22;;;;;;;8.27;3.37;;;;;;;18.97;59.23;100013.25;4500672;31;34094;-62
2023/05/20 04:20:53;;;;;;;4.78;2.92;;;;;;;19.18;58.60;100018.25;4498809;31;33531;-61
2023/05/20 04:23:22;;;;;;;6.82;3.50;;;;;;;18.89;59.31;100010.47;4493639;31;34366;-61
2023/05/20 04:25:50;;;;;;;7.03;4.22;;;;;;;18.94;58.62;100015.41;4497127;31;32277;-62
2023/05/20 04:28:17;;;;;;;5.05;2.55;;;;;;;19.11;58.56;100017.22;4485043;32;33777;-62
2023/05/20 04:30:45;;;;;;;5.30;3.22;;;;;;;18.83;58.92;100019.25;4485979;31;33705;-62
2023/05/20 04:33:13;;;;;;;7.35;3.62;;;;;;;18.83;58.44;100016.56;4496365;31;33364;-62
2023/05/20 04:35:41;;;;;;;6.75;4.03;;;;;;;19.16;57.80;100028.41;4490061;31;33685;-62
2023/05/20 04:38:09;;;;;;;7.78;3.58;;;;;;;19.21;56.37;100027.94;4497911;31;33626;-62
2023/05/20 04:40:38;;;;;;;6.43;3.25;;;;;;;18.90;57.27;100027.59;4496565;31;33876;-61
2023/05/20 04:43:06;;;;;;;4.68;3.28;;;;;;;19.22;57.04;100025.03;4493135;31;33115;-61
2023/05/20 04:45:35;;;;;;;5.30;3.20;;;;;;;19.15;56.64;100028.56;4496325;31;35040;-62
2023/05/20 04:48:04;;;;;;;6.28;3.42;;;;;;;19.29;56.97;100033.37;4490417;31;34166;-63
2023/05/20 04:50:36;;;;;;;7.80;3.30;;;;;;;19.33;56.24;100031.22;4491267;31;34417;-61
2023/05/20 04:53:07;;;;;;;5.62;2.97;;;;;;;19.41;56.05;100034.78;4495130;31;32244;-62
2023/05/20 04:55:36;;;;;;;12.93;2.80;;;;;;;19.40;55.95;100037.66;4493034;31;33760;-61
2023/05/20 04:58:04;;;;;;;4.18;2.72;;;;;;;19.26;56.47;100034.56;4489555;31;35183;-63
2023/05/20 05:00:32;;;;;;;6.82;3.78;;;;;;;19.41;55.67;100033.94;4493202;31;33818;-61
2023/05/20 05:03:00;;;;;;;4.62;2.97;;;;;;;19.56;55.53;100021.44;4496732;31;33319;-61
2023/05/20 05:05:27;;;;;;;5.35;3.62;;;;;;;19.56;55.57;100021.44;4497088;31;34545;-62
2023/05/20 05:07:55;;;;;;;5.78;3.75;;;;;;;19.70;55.81;100017.25;4487846;31;33759;-62
2023/05/20 05:10:24;;;;;;;9.05;5.07;;;;;;;19.41;55.83;100013.06;4491528;31;34660;-61
2023/05/20 05:12:51;;;;;;;5.78;2.80;;;;;;;19.25;56.79;100019.28;4495889;31;33068;-63
2023/05/20 05:15:19;;;;;;;4.80;3.10;;;;;;;19.46;55.45;100018.00;4498664;31;35035;-63
2023/05/20 05:17:47;;;;;;;9.07;3.25;;;;;;;19.50;55.94;100020.22;4497804;31;34962;-62
2023/05/20 05:20:14;;;;;;;5.37;3.03;;;;;;;19.75;55.23;100015.72;4499925;31;33766;-62
2023/05/20 05:22:43;;;;;;;7.93;3.12;;;;;;;19.81;55.72;100024.19;4491644;31;31757;-62
2023/05/20 05:25:11;;;;;;;8.68;3.97;;;;;;;20.14;54.37;100030.53;4500092;31;34969;-62
2023/05/20 05:27:39;;;;;;;10.73;3.65;;;;;;;20.34;54.13;100033.75;4494988;31;33918;-62
2023/05/20 05:30:07;;;;;;;5.45;3.03;;;;;;;20.02;53.41;100032.72;4499019;31;34010;-62
2023/05/20 05:32:36;;;;;;;5.30;2.92;;;;;;;19.37;55.34;100035.28;4495534;31;34517;-64
2023/05/20 05:35:04;;;;;;;6.53;3.30;;;;;;;19.78;54.61;100037.13;4499085;31;34259;-64
2023/05/20 05:37:34;;;;;;;8.90;3.83;;;;;;;19.72;54.45;100028.78;4490120;31;35159;-62
2023/05/20 05:40:03;;;;;;;6.28;3.47;;;;;;;19.82;55.12;100040.34;4498107;31;33514;-62
2023/05/20 05:42:31;;;;;;;5.75;3.95;;;;;;;19.95;54.96;100035.25;4497081;31;32011;-63
2023/05/20 05:44:58;;;;;;;6.25;3.70;;;;;;;19.93;54.87;100036.44;4496209;31;33659;-63
2023/05/20 05:47:31;;;;;;;5.05;3.33;;;;;;;19.86;55.22;100043.56;4489151;31;32964;-63
2023/05/20 05:49:59;;;;;;;6.00;3.62;;;;;;;20.31;53.73;100045.81;4499453;31;33904;-64
2023/05/20 05:52:27;;;;;;;7.12;3.37;;;;;;;19.75;55.10;100044.75;4498488;31;34468;-63
2023/05/20 05:54:56;;;;;;;6.37;3.90;;;;;;;20.12;53.13;100047.00;4497584;31;35084;-62
2023/05/20 05:57:24;;;;;;;6.43;4.18;;;;;;;20.08;53.58;100059.22;4486390;31;35290;-61
2023/05/20 05:59:52;;;;;;;6.75;3.78;;;;;;;20.10;54.60;100051.75;4496968;31;32890;-63
2023/05/20 06:02:21;;;;;;;9.98;4.37;;;;;;;19.84;54.44;100051.91;4492733;31;34508;-62
2023/05/20 06:04:49;;;;;;;12.65;4.40;;;;;;;19.56;54.91;100043.16;4493080;31;35027;-63
2023/05/20 06:07:17;;;;;;;8.82;3.92;;;;;;;19.75;54.94;100039.31;4492481;31;33952;-63
2023/05/20 06:09:45;;;;;;;9.48;4.28;;;;;;;20.03;54.69;100034.41;4496319;31;33388;-64
2023/05/20 06:12:13;;;;;;;10.55;3.97;;;;;;;20.09;54.13;100028.31;4498307;31;34395;-63
2023/05/20 06:14:40;;;;;;;8.40;3.62;;;;;;;20.11;53.74;100034.44;4497561;31;33780;-64
2023/05/20 06:17:08;;;;;;;6.07;3.95;;;;;;;20.30;53.38;100038.69;4490373;31;34063;-63
2023/05/20 06:19:36;;;;;;;6.45;3.85;;;;;;;19.75;55.27;100032.03;4489777;31;33839;-63
2023/05/20 06:22:04;;;;;;;10.90;5.37;;;;;;;20.25;54.17;100031.03;4493599;31;32637;-62
2023/05/20 06:24:33;;;;;;;6.68;3.80;;;;;;;20.40;53.70;100035.78;4495626;31;33898;-63
2023/05/20 06:27:01;;;;;;;6.55;4.55;;;;;;;20.69;53.03;100036.13;4495769;31;33935;-63
2023/05/20 06:29:29;;;;;;;6.03;4.07;;;;;;;21.03;52.16;100026.84;4493714;31;32575;-63
2023/05/20 06:31:57;;;;;;;7.43;4.25;;;;;;;20.82;52.28;100030.13;4489517;31;31828;-62
2023/05/20 06:34:25;;;;;;;8.02;4.50;;;;;;;21.07;51.80;100032.78;4497938;31;34964;-63
2023/05/20 06:36:53;;;;;;;10.82;5.35;;;;;;;20.64;52.67;100040.37;4495403;31;34036;-63
2023/05/20 06:39:20;;;;;;;8.13;4.22;;;;;;;21.15;51.49;100038.19;4497397;31;34139;-63
2023/05/20 06:41:48;;;;;;;7.32;4.30;;;;;;;21.08;51.63;100038.03;4491722;31;33097;-63
2023/05/20 06:44:18;;;;;;;5.32;3.33;;;;;;;21.23;51.57;100035.44;4495848;31;34497;-63
2023/05/20 06:46:48;;;;;;;10.48;4.85;;;;;;;21.24;51.02;100028.97;4496325;31;34703;-63
2023/05/20 06:49:16;;;;;;;12.07;3.55;;;;;;;21.42;50.93;100026.03;4495734;31;33633;-63
2023/05/20 06:51:44;;;;;;;6.07;3.62;;;;;;;21.09;50.69;100030.72;4490850;31;33362;-64
2023/05/20 06:54:12;;;;;;;7.35;4.12;;;;;;;21.00;50.48;100023.63;4494937;31;34707;-63
2023/05/20 06:56:41;;;;;;;7.35;4.12;;;;;;;20.68;51.03;100026.28;4494768;31;34962;-63
2023/05/20 06:59:08;;;;;;;9.80;5.18;;;;;;;21.13;50.20;100024.78;4487851;31;32788;-63
2023/05/20 07:01:37;;;;;;;11.23;4.87;;;;;;;21.24;50.22;100026.25;4487983;31;32305;-64
2023/05/20 07:04:04;;;;;;;7.57;4.78;;;;;;;21.23;50.22;100021.84;4491696;31;35004;-64
2023/05/20 07:06:32;;;;;;;8.68;4.40;;;;;;;21.21;49.24;100025.75;4492909;31;33719;-63
2023/05/20 07:09:00;;;;;;;13.15;4.95;;;;;;;21.25;48.85;100025.25;4497966;31;34039;-63
2023/05/20 07:11:28;;;;;;;5.85;3.85;;;;;;;21.30;48.83;100019.25;4490604;31;33736;-64
2023/05/20 07:13:56;;;;;;;7.37;4.53;;;;;;;21.26;49.16;100018.75;4498712;31;34665;-63
2023/05/20 07:16:24;;;;;;;6.10;3.83;;;;;;;20.87;50.65;100010.59;4500308;31;34189;-64
2023/05/20 07:18:52;;;;;;;9.50;5.35;;;;;;;21.20;50.32;100008.56;4498437;31;33706;-63
2023/05/20 07:21:20;;;;;;;7.37;5.40;;;;;;;21.42;49.25;100012.44;4500449;31;33259;-63
2023/05/20 07:23:49;;;;;;;8.25;4.93;;;;;;;21.60;48.93;100006.69;4497434;31;35620;-63
2023/05/20 07:26:17;;;;;;;10.27;5.68;;;;;;;21.12;49.67;99998.59;4499862;31;33872;-62
2023/05/20 07:28:45;;;;;;;8.10;3.90;;;;;;;21.69;48.35;99991.16;4496746;31;33609;-63
2023/05/20 07:31:14;;;;;;;9.57;4.28;;;;;;;21.87;48.46;99989.81;4495928;31;33295;-63
2023/05/20 07:33:41;;;;;;;9.10;4.68;;;;;;;21.68;48.91;99997.62;4498516;31;32496;-63
2023/05/20 07:36:09;;;;;;;6.22;4.25;;;;;;;21.76;49.84;99990.22;4500597;31;35423;-63
2023/05/20 07:38:38;;;;;;;9.05;5.43;;;;;;;22.28;47.44;99989.53;4487662;31;34793;-64
2023/05/20 07:41:07;;;;;;;8.60;4.87;;;;;;;22.38;47.02;99993.87;4495460;31;32902;-63
2023/05/20 07:43:35;;;;;;;8.25;4.15;;;;;;;22.31;47.09;100000.06;4492067;31;34729;-64
2023/05/20 07:46:03;;;;;;;10.23;5.45;;;;;;;22.56;46.29;99995.19;4500038;31;33735;-63
2023/05/20 07:48:31;;;;;;;10.32;5.50;;;;;;;22.42;47.47;99997.91;4492591;31;33919;-63
2023/05/20 07:50:58;;;;;;;10.63;3.90;;;;;;;22.75;47.01;99995.69;4492747;31;31960;-63
2023/05/20 07:53:26;;;;;;;10.70;3.95;;;;;;;22.47;46.44;99992.72;4493923;31;33756;-64
2023/05/20 07:55:55;;;;;;;8.40;5.37;;;;;;;22.67;45.77;99995.78;4497746;31;33869;-64
2023/05/20 07:58:23;;;;;;;13.15;5.25;;;;;;;21.99;47.72;100006.59;4494376;31;34925;-64
2023/05/20 08:00:51;;;;;;;7.93;4.65;;;;;;;22.29;47.51;100002.13;4494300;31;33531;-63
2023/05/20 08:03:21;;;;;;;11.23;5.68;;;;;;;22.54;46.66;99986.37;4498499;31;33483;-64
2023/05/20 08:05:49;;;;;;;8.18;5.30;;;;;;;22.40;46.61;99989.06;4493068;31;34031;-62
2023/05/20 08:08:17;;;;;;;12.90;6.62;;;;;;;21.91;49.23;99987.56;4498486;31;33749;-63
2023/05/20 08:10:46;;;;;;;8.77;5.22;;;;;;;21.97;47.67;99992.31;4492239;31;34290;-63
2023/05/20 08:13:13;;;;;;;6.30;4.25;;;;;;;22.45;46.84;99987.47;4490453;31;33657;-63
2023/05/20 08:15:41;;;;;;;7.12;4.78;;;;;;;22.38;47.08;99989.25;4497089;31;33965;-63
2023/05/20 08:18:10;;;;;;;9.10;4.90;;;;;;;22.49;46.91;99991.50;4485898;31;34700;-63
2023/05/20 08:20:37;;;;;;;12.52;4.37;;;;;;;22.48;47.31;99989.84;4485841;31;33209;-64
2023/05/20 08:23:05;;;;;;;8.95;5.05;;;;;;;22.62;46.79;99984.56;4488082;31;33916;-63
2023/05/20 08:25:33;;;;;;;7.95;4.85;;;;;;;22.69;47.48;99990.97;4490045;31;33874;-64
2023/05/20 08:28:02;;;;;;;7.97;4.75;;;;;;;22.68;47.03;99986.56;4488119;31;34941;-64
2023/05/20 08:30:30;;;;;;;9.48;4.35;;;;;;;22.75;45.86;99982.88;4496751;31;33483;-64
2023/05/20 08:32:59;;;;;;;10.82;4.15;;;;;;;22.54;47.99;99975.47;4491183;31;33175;-64
2023/05/20 08:35:27;;;;;;;9.73;4.95;;;;;;;22.91;45.62;99978.28;4501019;31;34638;-62
2023/05/20 08:37:55;;;;;;;6.65;3.95;;;;;;;23.10;46.77;99971.41;4487868;31;34164;-64
2023/05/20 08:40:23;;;;;;;8.90;5.03;;;;;;;23.23;44.26;99980.63;4495520;31;33487;-65
2023/05/20 08:42:53;;;;;;;9.73;3.70;;;;;;;23.31;43.39;99973.38;4493132;31;34921;-65
2023/05/20 08:45:26;;;;;;;8.45;4.30;;;;;;;23.30;44.18;99974.38;4488832;31;35978;-63
2023/05/20 08:47:55;;;;;;;6.57;4.53;;;;;;;23.41;44.88;99963.81;4495926;31;33989;-63
2023/05/20 08:50:22;;;;;;;8.77;4.90;;;;;;;23.34;45.31;99964.78;4484402;31;33164;-63
2023/05/20 08:52:50;;;;;;;8.43;4.70;;;;;;;23.40;45.72;99961.28;4491408;31;34593;-64
2023/05/20 08:55:25;;;;;;;11.05;5.80;;;;;;;23.44;45.50;99954.41;4496649;31;34337;-63
2023/05/20 08:57:53;;;;;;;;;;;;;;;23.40;46.46;99962.16;4499683;31;33734;-64
2023/05/20 09:00:26;;;;;;;8.27;4.62;;;;;;;23.43;44.53;99960.88;4492365;31;32300;-65
2023/05/20 09:02:54;;;;;;;13.02;3.90;;;;;;;23.62;45.04;99962.16;4499490;31;33731;-65
2023/05/20 09:05:24;;;;;;;7.68;4.10;;;;;;;23.91;43.86;99947.53;4500211;31;34022;-64
2023/05/20 09:07:52;;;;;;;7.65;4.55;;;;;;;24.00;43.07;99953.72;4498053;31;35353;-64
2023/05/20 09:10:19;;;;;;;8.45;5.60;;;;;;;24.09;43.04;99953.38;4497410;31;34641;-66
2023/05/20 09:12:48;;;;;;;5.62;4.00;;;;;;;24.14;44.15;99959.12;4484156;31;34930;-65
2023/05/20 09:15:15;;;;;;;9.20;5.20;;;;;;;24.07;43.87;99955.47;4483186;31;33931;-65
2023/05/20 09:17:43;;;;;;;7.22;4.60;;;;;;;23.93;44.40;99951.78;4495117;31;34728;-65
2023/05/20 09:20:11;;;;;;;7.95;4.97;;;;;;;24.20;41.66;99953.88;4499741;31;34326;-64
2023/05/20 09:22:38;;;;;;;14.52;5.72;;;;;;;23.78;44.29;99952.88;4496190;31;33688;-65
2023/05/20 09:25:06;;;;;;;10.10;6.37;;;;;;;24.15;43.20;99949.03;4495665;31;33905;-64
2023/05/20 09:27:35;;;;;;;9.05;4.53;;;;;;;23.96;43.87;99945.06;4496633;31;35381;-65
2023/05/20 09:30:06;;;;;;;10.55;4.87;;;;;;;23.93;43.06;99948.19;4495411;31;33967;-64
2023/05/20 09:32:33;;;;;;;9.88;5.80;;;;;;;23.85;43.58;99949.19;4498744;31;34748;-64
2023/05/20 09:35:03;;;;;;;9.95;5.10;;;;;;;24.07;44.09;99946.41;4491225;31;35221;-64
2023/05/20 09:37:33;;;;;;;9.02;4.53;;;;;;;24.27;44.23;99949.31;4490036;31;35445;-64
2023/05/20 09:40:05;;;;;;;7.72;4.37;;;;;;;24.56;42.69;99930.00;4493607;31;34749;-63
2023/05/20 09:42:53;;;;;;;8.98;4.90;;;;;;;24.80;41.52;99925.91;4487267;31;33700;-63
2023/05/20 09:45:21;;;;;;;9.18;5.60;;;;;;;25.06;40.38;99922.44;4488181;31;33873;-63
2023/05/20 09:47:51;;;;;;;9.02;5.35;;;;;;;25.17;41.01;99921.06;4498895;31;34662;-64
2023/05/20 09:50:22;;;;;;;9.40;5.37;;;;;;;25.35;40.38;99908.66;4492600;31;34559;-64
2023/05/20 09:52:51;;;;;;;7.95;4.70;;;;;;;25.38;40.95;99905.50;4485486;31;34779;-64
2023/05/20 09:55:22;;;;;;;7.80;5.05;;;;;;;25.15;40.69;99903.97;4495300;31;35284;-65
2023/05/20 09:57:50;;;;;;;10.88;5.55;;;;;;;25.48;40.25;99905.94;4497345;31;33741;-64
2023/05/20 10:00:18;;;;;;;10.32;6.47;;;;;;;25.45;40.15;99900.88;4492538;31;34984;-65
2023/05/20 10:02:50;;;;;;;8.77;5.00;;;;;;;25.72;39.96;99907.25;4494582;31;33684;-64
2023/05/20 10:05:22;;;;;;;8.13;5.55;;;;;;;25.70;38.79;99895.66;4495526;31;33858;-64
2023/05/20 10:07:50;;;;;;;13.02;4.70;;;;;;;25.47;38.26;99904.28;4496549;31;34919;-63
2023/05/20 10:10:51;;;;;;;9.73;5.62;;;;;;;25.55;38.30;99901.31;4494470;31;33111;-63
2023/05/20 10:13:22;;;;;;;8.98;5.72;;;;;;;25.73;38.25;99904.28;4491038;31;34841;-63
2023/05/20 10:16:23;;;;;;;8.95;5.47;;;;;;;25.52;38.23;99899.00;4489546;31;33111;-63
2023/05/20 10:18:56;;;;;;;10.32;6.85;;;;;;;25.74;37.97;99897.75;4496637;31;33630;-65
2023/05/20 10:21:24;;;;;;;7.53;5.30;;;;;;;25.54;38.26;99888.69;4495927;31;33321;-63
2023/05/20 10:23:52;;;;;;;10.35;6.43;;;;;;;25.49;37.70;99885.69;4492021;31;33603;-64
2023/05/20 10:26:21;;;;;;;13.35;6.55;;;;;;;25.33;38.03;99886.97;4488329;31;34939;-63
2023/05/20 10:28:48;;;;;;;8.00;5.25;;;;;;;25.83;38.19;99887.47;4495520;31;33938;-64
2023/05/20 10:31:20;;;;;;;7.65;5.37;;;;;;;25.96;36.88;99892.09;4489971;31;33639;-64
2023/05/20 10:33:50;;;;;;;10.60;6.35;;;;;;;26.07;36.42;99882.38;4486531;31;33962;-64
2023/05/20 10:36:25;;;;;;;9.98;6.82;;;;;;;26.14;36.06;99875.84;4488793;31;33214;-64
2023/05/20 10:38:59;;;;;;;;;;;;;;;26.43;35.98;99873.69;4499500;31;34572;-64
2023/05/20 10:41:28;;;;;;;10.93;8.00;;;;;;;26.79;36.46;99875.94;4496857;31;33440;-64
2023/05/20 10:44:03;;;;;;;9.50;6.18;;;;;;;26.68;34.69;99871.97;4493896;31;33688;-64
2023/05/20 10:46:32;;;;;;;12.40;5.87;;;;;;;26.62;34.60;99869.25;4483523;31;35368;-65
2023/05/20 10:49:19;;;;;;;10.27;7.00;;;;;;;26.79;35.29;99870.44;4488532;31;32848;-64
2023/05/20 10:51:54;;;;;;;9.25;6.20;;;;;;;26.33;35.75;99881.53;4496044;31;33052;-64
2023/05/20 10:54:22;;;;;;;9.10;6.28;;;;;;;26.89;35.12;99864.47;4501451;31;33604;-64
2023/05/20 10:56:51;;;;;;;9.25;4.95;;;;;;;26.91;34.25;99863.19;4498759;31;33725;-64
2023/05/20 10:59:22;;;;;;;9.85;5.90;;;;;;;27.11;32.25;99859.50;4491094;31;34798;-64
2023/05/20 11:01:50;;;;;;;10.38;6.72;;;;;;;26.97;33.10;99852.38;4491938;31;33384;-65
2023/05/20 11:04:18;;;;;;;10.93;7.18;;;;;;;27.18;33.06;99866.66;4498172;31;33574;-65
2023/05/20 11:06:52;;;;;;;9.50;6.10;;;;;;;27.38;33.09;99854.72;4495869;31;32467;-63
2023/05/20 11:09:20;;;;;;;9.40;6.55;;;;;;;27.41;32.33;99854.28;4496907;31;33967;-63
2023/05/20 11:11:50;;;;;;;9.18;6.25;;;;;;;27.35;32.43;99856.03;4488897;31;34190;-65
2023/05/20 11:14:18;;;;;;;8.40;5.55;;;;;;;27.60;33.28;99850.53;4495691;31;33350;-65
2023/05/20 11:16:50;;;;;;;9.77;5.18;;;;;;;27.46;31.87;99839.88;4496959;31;34838;-64
2023/05/20 11:19:20;;;;;;;9.45;5.75;;;;;;;27.39;32.21;99837.19;4495891;31;34815;-64
2023/05/20 11:21:48;;;;;;;9.18;6.35;;;;;;;27.65;31.76;99841.63;4488901;31;34487;-64
2023/05/20 11:24:25;;;;;;;11.50;6.50;;;;;;;27.69;31.62;99842.84;4487965;31;33576;-65
2023/05/20 11:26:54;;;;;;;8.82;5.62;;;;;;;27.81;31.86;99841.09;4486190;31;35000;-64
2023/05/20 11:29:22;;;;;;;7.57;4.40;;;;;;;27.04;33.24;99832.09;4490840;31;33626;-64
2023/05/20 11:31:50;;;;;;;8.27;5.18;;;;;;;27.93;32.82;99832.97;4495059;31;32110;-65
2023/05/20 11:34:22;;;;;;;8.00;4.60;;;;;;;27.93;30.78;99832.97;4490958;31;33571;-64
2023/05/20 11:36:57;;;;;;;11.07;4.87;;;;;;;28.04;30.36;99825.87;4501422;31;33894;-64